Time;durP1;ratioP1;P1;durP2;ratioP2;P2;SDS_P1;SDS_P2;PMS_P1;PMS_P2;Temp;Humidity;BMP_temperature;BMP_pressure;BME280_temperature;BME280_humidity;BME280_pressure;Samples;Min_cycle;Max_cycle;Signal;HPM_P1;HPM_P2
2024/01/06 00:00:37;;;;;;;1.05;0.63;;;;;;;26.03;35.23;99244.66;7390446;19;20022;-51
2024/01/06 00:03:03;;;;;;;7.45;0.98;;;;;;;32.89;29.24;99233.50;7390729;19;20343;-50
2024/01/06 00:05:29;;;;;;;6.90;0.95;;;;;;;34.19;27.42;99241.00;7391236;19;20017;-50
2024/01/06 00:07:55;;;;;;;1.58;1.10;;;;;;;32.61;28.59;99240.75;7391072;19;20018;-50
2024/01/06 00:10:21;;;;;;;10.90;1.67;;;;;;;32.51;28.12;99248.88;7394241;19;20010;-51
2024/01/06 00:12:48;;;;;;;11.35;1.63;;;;;;;32.57;28.14;99246.28;7391922;19;20115;-51
2024/01/06 00:15:14;;;;;;;2.28;0.85;;;;;;;32.63;28.00;99252.38;7392481;19;20031;-50
2024/01/06 00:17:40;;;;;;;3.17;1.08;;;;;;;32.63;27.73;99252.38;7391347;19;20506;-50
2024/01/06 00:20:07;;;;;;;1.83;0.73;;;;;;;32.44;28.04;99260.75;7397435;19;20014;-50
2024/01/06 00:22:33;;;;;;;4.68;1.25;;;;;;;32.27;27.55;99264.91;7401775;19;20033;-51
2024/01/06 00:24:59;;;;;;;2.60;0.30;;;;;;;31.92;27.70;99270.25;7399888;19;20011;-51
2024/01/06 00:27:26;;;;;;;0.98;0.88;;;;;;;28.61;30.14;99280.41;7397648;19;20027;-50
2024/01/06 00:29:52;;;;;;;8.25;1.25;;;;;;;28.99;30.69;99271.47;7399487;19;20015;-50
2024/01/06 00:32:18;;;;;;;1.02;0.68;;;;;;;30.65;29.27;99278.25;7396584;19;20015;-50
2024/01/06 00:34:44;;;;;;;3.60;1.33;;;;;;;31.52;28.14;99285.34;7397398;19;20551;-50
2024/01/06 00:37:10;;;;;;;3.20;1.55;;;;;;;30.33;29.18;99281.34;7397117;19;20070;-50
2024/01/06 00:39:36;;;;;;;3.28;1.85;;;;;;;29.74;29.73;99285.59;7399383;19;20463;-50
2024/01/06 00:42:03;;;;;;;22.70;2.13;;;;;;;29.72;29.61;99289.09;7398298;19;20017;-50
2024/01/06 00:44:29;;;;;;;9.98;1.45;;;;;;;31.31;28.28;99289.22;7397642;19;20031;-50
2024/01/06 00:46:55;;;;;;;14.27;1.90;;;;;;;31.23;28.38;99295.25;7397601;19;20044;-50
2024/01/06 00:49:21;;;;;;;2.67;1.20;;;;;;;31.54;27.97;99299.84;7398986;19;20014;-50
2024/01/06 00:51:47;;;;;;;3.45;0.75;;;;;;;31.72;27.93;99304.47;7398097;19;20070;-50
2024/01/06 00:54:13;;;;;;;3.05;1.60;;;;;;;31.78;27.86;99301.16;7396991;19;20498;-50
2024/01/06 00:56:41;;;;;;;1.05;0.98;;;;;;;32.10;27.78;99311.56;7396860;19;20015;-50
2024/01/06 00:59:08;;;;;;;1.65;0.82;;;;;;;31.89;27.58;99300.34;7398542;19;20034;-50
2024/01/06 01:01:34;;;;;;;5.38;1.67;;;;;;;31.74;27.91;99309.59;7397279;19;20010;-50
2024/01/06 01:04:00;;;;;;;2.67;0.82;;;;;;;32.02;27.87;99305.38;7398327;19;20420;-50
2024/01/06 01:06:26;;;;;;;13.95;1.80;;;;;;;31.97;27.88;99300.78;7397470;19;20015;-50
2024/01/06 01:08:53;;;;;;;4.20;1.42;;;;;;;32.06;27.51;99308.47;7397788;19;20432;-51
2024/01/06 01:11:19;;;;;;;7.97;1.27;;;;;;;32.23;27.62;99302.19;7395594;19;20018;-50
2024/01/06 01:13:45;;;;;;;4.55;1.45;;;;;;;32.31;27.87;99308.38;7396615;19;20007;-50
2024/01/06 01:16:12;;;;;;;3.00;1.17;;;;;;;32.26;27.35;99309.56;7396402;19;20022;-50
2024/01/06 01:18:38;;;;;;;3.17;1.33;;;;;;;32.14;27.34;99324.06;7396788;19;20029;-50
2024/01/06 01:21:04;;;;;;;3.47;1.42;;;;;;;31.16;28.29;99319.34;7400721;19;20473;-50
2024/01/06 01:23:30;;;;;;;1.23;0.82;;;;;;;31.04;28.07;99327.25;7397033;19;20015;-50
2024/01/06 01:25:56;;;;;;;0.57;0.57;;;;;;;30.75;28.74;99326.22;7395635;19;20037;-50
2024/01/06 01:28:22;;;;;;;1.75;0.90;;;;;;;30.95;28.40;99333.19;7396516;19;20010;-50
2024/01/06 01:30:49;;;;;;;1.17;1.08;;;;;;;29.43;29.63;99340.34;7396463;19;20490;-50
2024/01/06 01:33:15;;;;;;;7.53;2.05;;;;;;;27.45;30.96;99351.78;7396399;19;20022;-50
2024/01/06 01:35:41;;;;;;;0.65;0.40;;;;;;;28.54;30.16;99351.59;7395459;19;20010;-50
2024/01/06 01:38:08;;;;;;;1.20;0.65;;;;;;;27.75;31.12;99350.34;7395811;19;20324;-50
2024/01/06 01:40:34;;;;;;;5.10;1.35;;;;;;;25.37;33.48;99357.88;7394628;19;20010;-50
2024/01/06 01:43:00;;;;;;;1.13;0.85;;;;;;;26.06;32.94;99360.47;7396040;19;20026;-50
2024/01/06 01:45:26;;;;;;;0.88;0.63;;;;;;;23.53;35.04;99354.28;7395952;19;21050;-50
2024/01/06 01:47:52;;;;;;;6.38;1.55;;;;;;;24.30;34.64;99356.03;7399009;19;20055;-50
2024/01/06 01:50:20;;;;;;;1.65;0.88;;;;;;;23.85;34.54;99366.41;7396216;19;20033;-50
2024/01/06 01:52:46;;;;;;;0.40;0.40;;;;;;;23.45;35.21;99368.56;7399473;19;20015;-50
2024/01/06 01:55:12;;;;;;;2.17;0.52;;;;;;;21.78;37.34;99372.97;7395987;19;20031;-50
2024/01/06 01:57:38;;;;;;;1.85;1.25;;;;;;;20.87;38.53;99367.00;7395886;19;20018;-50
2024/01/06 02:00:06;;;;;;;1.10;0.60;;;;;;;20.01;39.42;99383.72;7393231;19;20365;-50
2024/01/06 02:02:38;;;;;;;1.60;0.77;;;;;;;20.26;39.43;99382.81;7393990;19;20031;-51
2024/01/06 02:05:04;;;;;;;2.15;0.63;;;;;;;21.54;38.16;99384.81;7395808;19;20043;-50
2024/01/06 02:07:30;;;;;;;2.70;0.98;;;;;;;22.00;36.72;99394.19;7395963;19;20493;-50
2024/01/06 02:09:56;;;;;;;0.77;0.55;;;;;;;21.41;37.29;99396.31;7396635;19;20020;-50
2024/01/06 02:12:23;;;;;;;1.08;1.02;;;;;;;18.97;40.18;99402.50;7393636;19;20047;-50
2024/01/06 02:14:49;;;;;;;0.75;0.75;;;;;;;18.72;40.46;99401.22;7396427;19;20037;-50
2024/01/06 02:17:15;;;;;;;2.80;0.60;;;;;;;20.11;39.28;99404.53;7395631;19;20034;-50
2024/01/06 02:19:41;;;;;;;2.75;0.70;;;;;;;20.22;38.36;99415.59;7394513;19;20029;-50
2024/01/06 02:22:07;;;;;;;1.02;0.43;;;;;;;19.79;38.83;99409.69;7399172;19;20347;-50
2024/01/06 02:24:33;;;;;;;1.77;0.98;;;;;;;19.74;38.86;99421.88;7394492;19;20017;-50
2024/01/06 02:26:59;;;;;;;5.75;1.83;;;;;;;21.19;36.98;99419.63;7395276;19;20025;-50
2024/01/06 02:29:25;;;;;;;1.13;1.05;;;;;;;21.19;37.21;99422.47;7395065;19;20010;-50
2024/01/06 02:31:52;;;;;;;0.82;0.65;;;;;;;21.12;37.11;99432.44;7395019;19;20040;-50
2024/01/06 02:34:18;;;;;;;6.82;1.58;;;;;;;21.11;36.92;99433.78;7394756;19;20421;-50
2024/01/06 02:36:44;;;;;;;2.13;1.30;;;;;;;21.25;36.80;99431.56;7394286;19;20011;-50
2024/01/06 02:39:10;;;;;;;7.40;1.50;;;;;;;21.12;37.02;99444.53;7393440;19;20332;-50
2024/01/06 02:41:36;;;;;;;0.32;0.32;;;;;;;20.83;37.77;99440.19;7392919;19;20095;-50
2024/01/06 02:44:03;;;;;;;1.58;1.38;;;;;;;21.27;37.20;99445.94;7394304;19;20333;-50
2024/01/06 02:46:29;;;;;;;2.75;1.33;;;;;;;21.39;36.96;99459.22;7393959;19;20463;-50
2024/01/06 02:48:56;;;;;;;0.82;0.82;;;;;;;20.45;37.76;99456.13;7393872;19;20015;-50
2024/01/06 02:51:22;;;;;;;4.70;1.85;;;;;;;20.10;38.58;99460.31;7393834;19;20070;-50
2024/01/06 02:53:48;;;;;;;5.72;0.93;;;;;;;19.62;39.15;99463.78;7393841;19;20015;-50
2024/01/06 02:56:14;;;;;;;1.50;1.23;;;;;;;19.93;39.00;99465.59;7393500;19;20017;-50
2024/01/06 02:58:40;;;;;;;1.90;1.10;;;;;;;21.49;36.86;99465.09;7393687;19;20026;-50
2024/01/06 03:01:06;;;;;;;3.30;1.63;;;;;;;21.35;37.39;99472.97;7395404;19;20006;-50
2024/01/06 03:03:32;;;;;;;0.88;0.88;;;;;;;21.84;37.04;99479.25;7393333;19;20014;-50
2024/01/06 03:05:58;;;;;;;0.35;0.35;;;;;;;21.92;37.00;99479.25;7392640;19;20017;-50
2024/01/06 03:08:24;;;;;;;2.45;1.67;;;;;;;22.01;37.12;99487.22;7392491;19;20035;-50
2024/01/06 03:10:51;;;;;;;5.10;0.77;;;;;;;22.15;36.76;99494.25;7393387;19;20501;-50
2024/01/06 03:13:17;;;;;;;0.30;0.30;;;;;;;22.18;37.26;99490.25;7393488;19;20458;-50
2024/01/06 03:15:43;;;;;;;4.85;1.20;;;;;;;22.23;37.06;99491.41;7392026;19;20029;-50
2024/01/06 03:18:09;;;;;;;3.42;1.95;;;;;;;22.26;37.59;99496.69;7390785;19;20010;-50
2024/01/06 03:20:35;;;;;;;0.43;0.43;;;;;;;23.02;36.41;99502.44;7391904;19;20010;-49
2024/01/06 03:23:01;;;;;;;1.27;0.57;;;;;;;23.14;36.57;99497.84;7396767;19;20014;-50
2024/01/06 03:25:27;;;;;;;3.53;1.42;;;;;;;23.69;36.00;99501.47;7392783;19;20011;-50
2024/01/06 03:27:53;;;;;;;2.97;1.58;;;;;;;24.00;35.22;99497.16;7393502;19;20017;-50
2024/01/06 03:30:20;;;;;;;1.85;0.52;;;;;;;29.72;30.31;99490.03;7392727;19;20021;-50
2024/01/06 03:32:46;;;;;;;0.65;0.65;;;;;;;31.57;28.32;99479.97;7396472;19;20014;-50
2024/01/06 03:35:12;;;;;;;4.22;2.42;;;;;;;32.21;27.02;99480.75;7393716;19;20014;-50
2024/01/06 03:37:38;;;;;;;0.90;0.80;;;;;;;32.57;26.54;99482.75;7392319;19;20542;-50
2024/01/06 03:40:05;;;;;;;2.40;0.95;;;;;;;32.72;26.58;99482.16;7391454;19;20026;-50
2024/01/06 03:42:31;;;;;;;0.30;0.30;;;;;;;33.09;26.39;99492.75;7393530;19;20037;-50
2024/01/06 03:44:57;;;;;;;3.53;1.10;;;;;;;33.28;25.71;99489.41;7392028;19;20037;-50
2024/01/06 03:47:23;;;;;;;1.67;1.17;;;;;;;33.14;26.00;99503.09;7392725;19;20070;-50
2024/01/06 03:49:49;;;;;;;2.92;0.47;;;;;;;30.46;26.76;99491.25;7391505;19;20454;-50
2024/01/06 03:52:15;;;;;;;0.45;0.45;;;;;;;26.11;30.70;99507.91;7392873;19;20015;-50
2024/01/06 03:54:41;;;;;;;1.75;0.75;;;;;;;24.00;32.73;99514.22;7389195;19;20421;-50
2024/01/06 03:57:07;;;;;;;2.17;1.45;;;;;;;23.71;33.22;99526.50;7392462;19;20026;-50
2024/01/06 03:59:34;;;;;;;3.30;1.15;;;;;;;26.62;30.36;99518.34;7391797;19;20037;-49
2024/01/06 04:02:00;;;;;;;9.82;1.30;;;;;;;24.87;32.04;99524.66;7394857;19;20017;-50
2024/01/06 04:04:26;;;;;;;9.18;0.95;;;;;;;24.28;32.58;99520.94;7391558;19;20010;-50
2024/01/06 04:06:52;;;;;;;6.13;1.98;;;;;;;23.04;33.62;99533.84;7392616;19;20522;-50
2024/01/06 04:09:18;;;;;;;0.20;0.20;;;;;;;21.31;35.97;99522.81;7391582;19;20041;-50
2024/01/06 04:11:44;;;;;;;8.27;1.73;;;;;;;20.79;37.05;99523.94;7392117;19;20446;-50
2024/01/06 04:14:10;;;;;;;3.10;1.05;;;;;;;20.49;37.65;99530.09;7391738;19;20006;-50
2024/01/06 04:16:36;;;;;;;1.35;1.25;;;;;;;21.52;36.42;99529.16;7391766;19;20018;-50
2024/01/06 04:19:02;;;;;;;2.75;0.88;;;;;;;20.24;38.09;99537.41;7392117;19;20010;-50
2024/01/06 04:21:28;;;;;;;11.48;1.02;;;;;;;23.17;34.90;99540.06;7392129;19;20025;-50
2024/01/06 04:23:55;;;;;;;1.35;0.77;;;;;;;24.74;32.65;99528.59;7390984;19;20066;-50
2024/01/06 04:26:22;;;;;;;32.75;1.85;;;;;;;25.10;32.32;99519.50;7391200;19;20015;-50
2024/01/06 04:28:48;;;;;;;5.15;1.60;;;;;;;25.29;31.87;99528.25;7391013;19;20037;-49
2024/01/06 04:31:14;;;;;;;1.13;1.05;;;;;;;24.87;32.18;99533.22;7392062;19;20017;-50
2024/01/06 04:33:40;;;;;;;2.75;1.75;;;;;;;24.62;32.41;99538.16;7390984;19;20018;-50
2024/01/06 04:36:07;;;;;;;2.58;1.23;;;;;;;24.15;32.62;99538.28;7391151;19;20351;-50
2024/01/06 04:38:33;;;;;;;3.47;1.17;;;;;;;24.16;32.32;99531.25;7390719;19;20031;-50
2024/01/06 04:40:59;;;;;;;1.75;1.05;;;;;;;23.88;32.61;99546.53;7391707;19;20074;-50
2024/01/06 04:43:25;;;;;;;1.45;1.35;;;;;;;22.92;33.37;99544.84;7390165;19;20038;-50
2024/01/06 04:45:51;;;;;;;2.00;0.50;;;;;;;22.21;33.83;99542.28;7391352;19;20021;-49
2024/01/06 04:48:17;;;;;;;3.20;0.50;;;;;;;22.11;34.19;99541.31;7390860;19;20041;-50
2024/01/06 04:50:44;;;;;;;1.20;0.95;;;;;;;22.56;33.76;99559.19;7390548;19;20487;-49
2024/01/06 04:53:10;;;;;;;1.30;1.20;;;;;;;22.36;33.93;99551.59;7395113;19;20019;-49
2024/01/06 04:55:36;;;;;;;7.93;1.95;;;;;;;23.06;33.39;99553.94;7390474;19;20037;-50
2024/01/06 04:58:02;;;;;;;0.20;0.20;;;;;;;22.96;33.41;99550.88;7390922;19;20014;-50
2024/01/06 05:00:28;;;;;;;5.05;1.73;;;;;;;23.22;33.04;99558.25;7390400;19;20010;-50
2024/01/06 05:02:54;;;;;;;0.38;0.38;;;;;;;23.06;33.37;99554.69;7394000;19;20014;-49
2024/01/06 05:05:20;;;;;;;1.35;1.10;;;;;;;22.05;34.15;99558.50;7389636;19;20020;-50
2024/01/06 05:07:46;;;;;;;4.60;2.42;;;;;;;21.99;34.71;99563.59;7397120;19;20123;-50
2024/01/06 05:10:13;;;;;;;4.13;1.40;;;;;;;22.11;33.92;99569.69;7397690;19;20026;-49
2024/01/06 05:12:39;;;;;;;4.97;1.58;;;;;;;22.25;34.30;99571.81;7397711;19;20018;-49
2024/01/06 05:15:05;;;;;;;1.67;0.82;;;;;;;21.77;34.86;99578.38;7396998;19;20485;-49
2024/01/06 05:17:31;;;;;;;0.20;0.20;;;;;;;21.76;34.66;99574.06;7396751;19;20025;-49
2024/01/06 05:19:58;;;;;;;1.63;1.23;;;;;;;21.70;34.66;99571.38;7395890;19;20090;-50
2024/01/06 05:22:24;;;;;;;0.25;0.25;;;;;;;21.57;34.46;99584.91;7398299;19;20014;-49
2024/01/06 05:24:53;;;;;;;0.90;0.90;;;;;;;21.45;34.34;99586.53;7396130;19;20018;-50
2024/01/06 05:27:19;;;;;;;7.50;2.67;;;;;;;21.60;34.25;99578.13;7396735;19;20381;-49
2024/01/06 05:29:46;;;;;;;1.67;0.85;;;;;;;21.51;34.40;99587.13;7397267;19;20019;-49
2024/01/06 05:32:12;;;;;;;0.50;0.30;;;;;;;21.10;34.74;99583.09;7396901;19;20020;-49
2024/01/06 05:34:38;;;;;;;0.63;0.63;;;;;;;20.98;34.66;99593.19;7396115;19;20018;-50
2024/01/06 05:37:04;;;;;;;3.15;0.93;;;;;;;21.16;34.59;99596.34;7396729;19;20032;-49
2024/01/06 05:39:30;;;;;;;0.75;0.70;;;;;;;21.08;33.93;99607.63;7396886;19;20021;-50
2024/01/06 05:41:56;;;;;;;0.90;0.40;;;;;;;19.72;35.66;99616.63;7398436;19;20031;-49
2024/01/06 05:44:22;;;;;;;1.25;1.17;;;;;;;19.32;36.04;99613.78;7396784;19;20026;-50
2024/01/06 05:46:48;;;;;;;6.63;1.25;;;;;;;19.38;35.87;99611.63;7395965;19;20015;-49
2024/01/06 05:49:14;;;;;;;5.25;0.68;;;;;;;19.41;36.14;99613.38;7396689;19;20082;-50
2024/01/06 05:51:45;;;;;;;0.70;0.70;;;;;;;19.03;36.39;99617.66;7394703;19;20034;-49
2024/01/06 05:54:11;;;;;;;4.60;1.20;;;;;;;17.75;38.03;99630.03;7395447;19;20522;-50
2024/01/06 05:56:37;;;;;;;4.47;0.85;;;;;;;17.17;38.67;99614.78;7395812;19;20367;-49
2024/01/06 05:59:03;;;;;;;7.32;1.52;;;;;;;17.71;38.30;99629.56;7396179;19;20394;-49
2024/01/06 06:01:29;;;;;;;0.20;0.20;;;;;;;18.06;37.43;99628.63;7395964;19;20007;-49
2024/01/06 06:03:55;;;;;;;0.57;0.57;;;;;;;17.99;37.62;99624.34;7395314;19;20011;-50
2024/01/06 06:06:21;;;;;;;0.50;0.50;;;;;;;17.90;37.86;99630.34;7395262;19;20037;-50
2024/01/06 06:08:48;;;;;;;0.38;0.38;;;;;;;17.18;38.64;99638.81;7395590;19;20018;-50
2024/01/06 06:11:14;;;;;;;1.38;0.73;;;;;;;18.10;37.62;99638.28;7394697;19;20031;-49
2024/01/06 06:13:41;;;;;;;1.42;0.90;;;;;;;18.51;37.03;99637.22;7399628;19;20010;-50
2024/01/06 06:16:09;;;;;;;0.30;0.30;;;;;;;18.59;36.49;99643.78;7394765;19;20017;-49
2024/01/06 06:18:35;;;;;;;0.70;0.68;;;;;;;18.49;36.94;99645.47;7394647;19;20011;-50
2024/01/06 06:21:03;;;;;;;3.38;1.52;;;;;;;16.15;39.34;99663.06;7395875;19;20070;-49
2024/01/06 06:23:32;;;;;;;0.75;0.70;;;;;;;18.22;36.85;99649.41;7397386;19;20347;-49
2024/01/06 06:25:59;;;;;;;1.90;0.73;;;;;;;17.60;37.58;99657.88;7395191;19;20036;-49
2024/01/06 06:28:26;;;;;;;0.98;0.82;;;;;;;18.83;36.34;99652.13;7394980;19;20359;-49
2024/01/06 06:30:52;;;;;;;2.15;0.73;;;;;;;19.73;35.43;99657.72;7395025;19;20017;-49
2024/01/06 06:33:18;;;;;;;23.27;2.15;;;;;;;19.87;35.06;99662.81;7397105;19;20018;-49
2024/01/06 06:35:44;;;;;;;0.98;0.90;;;;;;;19.97;35.08;99672.38;7394550;19;20007;-50
2024/01/06 06:38:11;;;;;;;0.90;0.90;;;;;;;21.80;33.10;99670.84;7394944;19;20394;-49
2024/01/06 06:40:37;;;;;;;0.10;0.10;;;;;;;22.21;32.82;99670.72;7394327;19;20014;-49
2024/01/06 06:43:03;;;;;;;0.75;0.73;;;;;;;21.41;33.08;99685.31;7395629;19;20458;-50
2024/01/06 06:45:29;;;;;;;0.68;0.40;;;;;;;21.05;33.77;99685.94;7394506;19;20106;-49
2024/01/06 06:47:55;;;;;;;2.78;1.45;;;;;;;21.05;33.65;99688.75;7395375;19;20026;-50
2024/01/06 06:50:21;;;;;;;1.40;1.10;;;;;;;20.88;34.10;99691.22;7394467;19;20484;-50
2024/01/06 06:52:47;;;;;;;1.80;0.60;;;;;;;21.01;33.64;99687.56;7396029;19;20025;-50
2024/01/06 06:55:14;;;;;;;1.73;1.63;;;;;;;20.35;34.59;99689.88;7394500;19;20031;-49
2024/01/06 06:57:40;;;;;;;0.85;0.75;;;;;;;20.58;34.29;99698.63;7394358;19;20015;-50
2024/01/06 07:00:09;;;;;;;2.92;1.10;;;;;;;21.34;33.58;99697.31;7391959;19;20403;-50
2024/01/06 07:02:35;;;;;;;1.38;0.60;;;;;;;21.74;33.34;99704.25;7394069;19;20021;-50
2024/01/06 07:05:02;;;;;;;8.60;2.10;;;;;;;22.21;32.50;99704.75;7393968;19;20462;-49
2024/01/06 07:07:28;;;;;;;1.65;0.70;;;;;;;22.83;32.19;99712.19;7393797;19;20014;-50
2024/01/06 07:09:54;;;;;;;2.10;0.68;;;;;;;22.85;31.98;99715.25;7393884;19;20031;-50
2024/01/06 07:12:20;;;;;;;1.75;1.08;;;;;;;23.21;31.79;99725.16;7391178;19;20011;-50
2024/01/06 07:14:46;;;;;;;1.55;0.57;;;;;;;23.57;31.23;99719.31;7395728;19;20015;-50
2024/01/06 07:17:12;;;;;;;1.08;0.77;;;;;;;23.88;30.67;99728.56;7392788;19;20006;-49
2024/01/06 07:19:38;;;;;;;2.58;1.45;;;;;;;23.58;31.32;99739.97;7392961;19;20014;-49
2024/01/06 07:22:05;;;;;;;0.80;0.57;;;;;;;23.57;30.85;99739.22;7395327;19;20034;-50
2024/01/06 07:24:31;;;;;;;6.15;2.20;;;;;;;23.70;31.13;99741.88;7394974;19;20015;-50
2024/01/06 07:26:57;;;;;;;0.30;0.28;;;;;;;23.41;30.90;99736.94;7392906;19;20109;-50
2024/01/06 07:29:23;;;;;;;2.67;1.65;;;;;;;23.59;30.84;99753.63;7392520;19;20010;-50
2024/01/06 07:31:50;;;;;;;0.88;0.65;;;;;;;24.04;29.96;99759.28;7390248;19;20015;-50
2024/01/06 07:34:16;;;;;;;5.00;3.58;;;;;;;21.03;32.88;99769.91;7390628;19;20070;-50
2024/01/06 07:36:42;;;;;;;1.15;1.15;;;;;;;19.82;34.17;99775.97;7388654;19;20006;-49
2024/01/06 07:39:09;;;;;;;11.23;1.52;;;;;;;21.07;33.08;99776.03;7391996;19;20033;-50
2024/01/06 07:41:35;;;;;;;13.18;2.03;;;;;;;21.40;32.39;99780.09;7390501;19;20014;-50
2024/01/06 07:44:02;;;;;;;1.30;0.55;;;;;;;20.03;33.88;99779.72;7393702;19;20539;-49
2024/01/06 07:46:29;;;;;;;3.95;1.70;;;;;;;19.20;35.10;99784.69;7388682;19;20014;-50
2024/01/06 07:48:55;;;;;;;0.77;0.77;;;;;;;21.05;32.80;99785.06;7388774;19;20018;-49
2024/01/06 07:51:22;;;;;;;0.80;0.68;;;;;;;22.07;31.83;99785.59;7388115;19;20398;-50
2024/01/06 07:53:48;;;;;;;14.70;1.48;;;;;;;21.59;31.94;99789.19;7388705;19;20010;-50
2024/01/06 07:56:14;;;;;;;0.60;0.60;;;;;;;19.86;33.73;99796.97;7390011;19;20350;-50
2024/01/06 07:58:40;;;;;;;1.58;0.98;;;;;;;19.53;34.58;99798.31;7387470;19;20010;-49
2024/01/06 08:01:06;;;;;;;0.57;0.45;;;;;;;20.00;33.59;99792.09;7391371;19;20021;-50
2024/01/06 08:03:32;;;;;;;0.30;0.30;;;;;;;18.05;35.87;99799.00;7391852;19;20220;-49
2024/01/06 08:05:58;;;;;;;1.63;0.73;;;;;;;17.76;36.13;99811.81;7396694;19;20090;-49
2024/01/06 08:08:25;;;;;;;0.47;0.47;;;;;;;16.12;38.31;99820.66;7389177;19;20042;-49
2024/01/06 08:10:51;;;;;;;1.77;0.88;;;;;;;17.90;36.01;99816.31;7391417;19;20010;-49
2024/01/06 08:13:17;;;;;;;8.05;1.52;;;;;;;17.98;35.90;99831.34;7392102;19;20417;-49
2024/01/06 08:15:43;;;;;;;8.55;2.30;;;;;;;18.64;35.51;99829.88;7395225;19;20019;-50
2024/01/06 08:18:09;;;;;;;4.65;3.00;;;;;;;19.21;34.58;99828.56;7391535;19;20044;-49
2024/01/06 08:20:35;;;;;;;2.72;1.67;;;;;;;20.47;33.48;99824.09;7391232;19;20339;-49
2024/01/06 08:23:01;;;;;;;2.90;2.08;;;;;;;20.87;32.89;99836.91;7396210;19;20074;-49
2024/01/06 08:25:27;;;;;;;0.35;0.35;;;;;;;20.92;33.07;99850.19;7392648;19;20087;-50
2024/01/06 08:27:53;;;;;;;1.27;0.45;;;;;;;22.07;31.87;99852.94;7391659;19;20481;-49
2024/01/06 08:30:19;;;;;;;1.85;1.27;;;;;;;22.21;31.38;99851.50;7391560;19;20011;-49
2024/01/06 08:32:46;;;;;;;1.35;1.08;;;;;;;22.23;31.32;99855.31;7389242;19;20007;-49
2024/01/06 08:35:12;;;;;;;2.15;0.30;;;;;;;22.36;31.03;99858.06;7392249;19;20022;-50
2024/01/06 08:37:38;;;;;;;1.75;1.33;;;;;;;22.43;31.29;99857.34;7390445;19;20034;-49
2024/01/06 08:40:05;;;;;;;0.30;0.30;;;;;;;22.72;30.75;99865.88;7393348;19;20014;-49
2024/01/06 08:42:31;;;;;;;1.77;1.23;;;;;;;23.01;30.76;99870.19;7398227;19;20359;-49
2024/01/06 08:44:57;;;;;;;4.18;1.95;;;;;;;22.94;30.30;99874.50;7400380;19;20027;-49
2024/01/06 08:47:24;;;;;;;0.50;0.50;;;;;;;23.03;30.12;99881.72;7396778;19;20398;-49
2024/01/06 08:49:50;;;;;;;1.42;0.68;;;;;;;23.04;30.06;99880.44;7397828;19;20006;-49
2024/01/06 08:52:16;;;;;;;1.27;1.15;;;;;;;23.38;29.99;99883.78;7398623;19;20020;-49
2024/01/06 08:54:42;;;;;;;1.20;0.75;;;;;;;23.05;30.75;99893.28;7398330;19;20018;-49
2024/01/06 08:57:09;;;;;;;1.23;0.88;;;;;;;22.99;30.54;99892.69;7396979;19;20124;-50
2024/01/06 08:59:35;;;;;;;1.65;0.65;;;;;;;22.96;30.52;99896.66;7397860;19;20580;-50
2024/01/06 09:02:01;;;;;;;1.13;0.93;;;;;;;22.99;30.84;99901.22;7398203;19;20010;-49
2024/01/06 09:04:27;;;;;;;0.75;0.75;;;;;;;21.75;32.02;99904.97;7398196;19;20006;-50
2024/01/06 09:06:53;;;;;;;0.40;0.30;;;;;;;21.97;31.71;99917.88;7397047;19;20010;-50
2024/01/06 09:09:19;;;;;;;0.73;0.57;;;;;;;22.24;31.08;99907.91;7396600;19;20459;-50
2024/01/06 09:11:46;;;;;;;2.72;0.73;;;;;;;22.00;31.44;99916.78;7395598;19;20015;-50
2024/01/06 09:14:12;;;;;;;1.45;1.25;;;;;;;21.93;31.64;99923.16;7397210;19;20502;-49
2024/01/06 09:16:38;;;;;;;3.20;1.25;;;;;;;21.77;31.62;99924.25;7397171;19;20014;-50
2024/01/06 09:19:05;;;;;;;25.38;2.17;;;;;;;21.66;31.93;99935.88;7397434;19;20399;-50
2024/01/06 09:21:31;;;;;;;3.90;1.83;;;;;;;21.46;31.74;99940.19;7398368;19;20011;-49
2024/01/06 09:23:57;;;;;;;8.75;2.17;;;;;;;21.39;31.95;99938.03;7396479;19;20011;-50
2024/01/06 09:26:23;;;;;;;0.93;0.75;;;;;;;21.14;32.19;99946.03;7396610;19;20018;-49
2024/01/06 09:28:49;;;;;;;7.85;2.30;;;;;;;21.01;32.78;99943.19;7396701;19;20074;-50
2024/01/06 09:31:15;;;;;;;0.57;0.57;;;;;;;21.26;32.09;99946.56;7396218;19;20359;-50
2024/01/06 09:33:42;;;;;;;3.05;0.73;;;;;;;21.34;32.16;99953.06;7396507;19;20014;-50
2024/01/06 09:36:11;;;;;;;0.20;0.20;;;;;;;21.21;31.96;99955.16;7400063;19;20011;-50
2024/01/06 09:38:37;;;;;;;1.02;1.02;;;;;;;21.16;32.39;99964.56;7396275;19;20011;-50
2024/01/06 09:41:03;;;;;;;2.65;1.13;;;;;;;21.17;32.40;99966.06;7396446;19;20014;-50
2024/01/06 09:43:30;;;;;;;0.75;0.65;;;;;;;21.84;31.63;99971.81;7396248;19;20111;-50
2024/01/06 09:46:05;;;;;;;2.97;1.30;;;;;;;21.83;31.71;99973.13;7400746;19;20014;-50
2024/01/06 09:48:37;;;;;;;2.88;1.25;;;;;;;21.06;32.37;99975.56;7397225;19;20017;-50
2024/01/06 09:51:06;;;;;;;7.13;1.33;;;;;;;21.00;32.55;99983.38;7394932;19;20417;-50
2024/01/06 09:53:36;;;;;;;0.40;0.40;;;;;;;21.36;32.11;99986.53;7395649;19;20041;-50
2024/01/06 09:56:04;;;;;;;0.90;0.90;;;;;;;21.68;31.48;99987.09;7400845;19;20027;-50
2024/01/06 09:58:34;;;;;;;4.28;2.72;;;;;;;21.81;31.29;99990.66;7395766;19;20066;-50
2024/01/06 10:01:01;;;;;;;10.30;1.58;;;;;;;21.07;32.50;99997.66;7395863;19;20399;-58
2024/01/06 10:03:27;;;;;;;1.55;0.50;;;;;;;21.62;31.76;99994.97;7395413;19;20011;-58
2024/01/06 10:05:53;;;;;;;1.45;0.52;;;;;;;21.79;32.09;99992.53;7399516;19;20014;-58
2024/01/06 10:08:19;;;;;;;4.68;2.22;;;;;;;21.50;32.00;99999.38;7398176;19;20029;-59
2024/01/06 10:10:45;;;;;;;12.32;2.35;;;;;;;21.44;32.21;100007.22;7399605;19;20017;-58
2024/01/06 10:13:16;;;;;;;2.90;1.33;;;;;;;21.29;32.45;100007.03;7396518;19;20021;-58
2024/01/06 10:15:43;;;;;;;11.45;2.63;;;;;;;21.44;32.56;100001.56;7398255;19;20462;-58
2024/01/06 10:18:09;;;;;;;1.38;0.77;;;;;;;21.35;32.45;100010.50;7395610;19;20011;-58
2024/01/06 10:20:36;;;;;;;3.90;1.10;;;;;;;19.57;34.14;100015.53;7395857;19;20357;-59
2024/01/06 10:23:06;;;;;;;1.05;0.95;;;;;;;18.64;35.64;100024.53;7400048;19;20505;-58
2024/01/06 10:25:32;;;;;;;13.27;2.20;;;;;;;18.86;35.19;100021.47;7397869;19;20390;-58
2024/01/06 10:28:04;;;;;;;1.15;0.98;;;;;;;18.40;35.96;100023.69;7395343;19;20043;-50
2024/01/06 10:30:30;;;;;;;4.65;0.65;;;;;;;18.44;36.09;100019.31;7394764;19;20014;-50
2024/01/06 10:32:56;;;;;;;6.22;2.80;;;;;;;18.09;36.60;100020.09;7393794;19;20014;-50
2024/01/06 10:35:24;;;;;;;12.38;3.60;;;;;;;20.72;33.54;100012.22;7397448;19;20036;-50
2024/01/06 10:37:51;;;;;;;1.27;1.17;;;;;;;21.85;32.15;100013.06;7393526;19;20015;-49
2024/01/06 10:40:18;;;;;;;3.92;1.45;;;;;;;22.67;31.49;100017.28;7394769;19;20006;-49
2024/01/06 10:42:45;;;;;;;7.78;1.88;;;;;;;22.73;31.39;100018.66;7394694;19;20028;-50
2024/01/06 10:45:13;;;;;;;4.13;1.17;;;;;;;22.91;31.05;100014.81;7396495;19;20010;-50
2024/01/06 10:47:43;;;;;;;8.30;1.88;;;;;;;22.83;31.22;100018.91;7394456;19;20016;-51
2024/01/06 10:50:10;;;;;;;24.90;2.03;;;;;;;22.84;30.96;100020.44;7394911;19;20014;-50
2024/01/06 10:52:38;;;;;;;5.47;1.83;;;;;;;22.80;30.68;100025.69;7395935;19;20030;-50
2024/01/06 10:55:05;;;;;;;2.65;1.05;;;;;;;22.97;31.12;100034.53;7395900;19;20031;-50
2024/01/06 10:57:31;;;;;;;3.33;0.55;;;;;;;23.24;30.74;100024.47;7393468;19;20454;-50
2024/01/06 10:59:59;;;;;;;2.05;1.48;;;;;;;23.45;30.47;100019.53;7394248;19;20365;-50
2024/01/06 11:02:26;;;;;;;5.38;1.92;;;;;;;23.46;30.66;100017.41;7393849;19;20375;-50
2024/01/06 11:04:53;;;;;;;1.85;1.00;;;;;;;22.53;31.77;100030.75;7395021;19;20010;-50
2024/01/06 11:07:21;;;;;;;1.80;0.98;;;;;;;23.65;30.79;100018.63;7393646;19;20069;-51
2024/01/06 11:09:58;;;;;;;3.65;1.27;;;;;;;23.20;30.76;100024.84;7392766;19;20424;-50
2024/01/06 11:12:26;;;;;;;2.35;0.80;;;;;;;20.91;33.38;100024.22;7391533;19;20074;-50
2024/01/06 11:14:52;;;;;;;1.67;1.23;;;;;;;20.67;33.40;100021.56;7395007;19;20017;-50
2024/01/06 11:17:53;;;;;;;23.77;4.22;;;;;;;19.61;34.89;100025.25;7393187;19;20014;-50
2024/01/06 11:20:21;;;;;;;5.03;2.00;;;;;;;19.87;34.78;100018.19;7393331;19;20490;-50
2024/01/06 11:22:47;;;;;;;0.85;0.82;;;;;;;19.50;35.27;100019.75;7397869;19;20028;-50
2024/01/06 11:25:19;;;;;;;1.23;1.15;;;;;;;19.18;35.79;100020.88;7395371;19;20466;-51
2024/01/06 11:27:47;;;;;;;2.05;1.02;;;;;;;19.33;35.48;100027.63;7393759;19;20022;-50